Terminal Aerodrome Forecast
Issued by NWS

Home | Current Version | Previous Version | Text Only | Print | Product List | Glossary On
Versions: 1 2 3 4 5 6 7 8 9 10 11 12 13 14
453
FTPA31 PHFO 281126
TAFHKO
TAF
PHKO 281126Z 2812/2912 10005KT P6SM FEW025 SCT050
     FM282000 20011KT P6SM FEW025 SCT050
     FM290600 15009KT P6SM BKN050
     FM290800 10007KT P6SM SCT050=

USA.gov is the U.S. government's official web portal to all federal, state and local government web resources and services.